createdAt,value
2018-07-07T00:02:13.249Z,67.90
2018-07-07T00:04:41.094Z,68.20
2018-07-07T00:07:09.032Z,68.10
2018-07-07T00:09:36.925Z,68.20
2018-07-07T00:12:04.849Z,68.60
2018-07-07T00:14:32.729Z,67.70
2018-07-07T00:17:00.625Z,67.70
2018-07-07T00:19:28.553Z,68.50
2018-07-07T00:21:56.358Z,73.40
2018-07-07T00:24:24.324Z,77.10
2018-07-07T00:26:52.337Z,79.20
2018-07-07T00:29:20.189Z,80.70
2018-07-07T00:31:48.082Z,80.50
2018-07-07T00:34:15.963Z,80.30
2018-07-07T00:36:43.877Z,80.40
2018-07-07T00:39:11.658Z,80.40
2018-07-07T00:41:39.568Z,79.10
2018-07-07T00:44:07.512Z,78.40
2018-07-07T00:46:35.403Z,76.80
2018-07-07T00:49:03.236Z,76.00
2018-07-07T00:51:31.148Z,75.90
2018-07-07T00:53:58.913Z,76.80
2018-07-07T00:56:26.752Z,79.70
2018-07-07T00:58:54.588Z,81.30
2018-07-07T01:01:22.431Z,81.00
2018-07-07T01:03:50.272Z,80.30
2018-07-07T01:06:26.649Z,79.30
2018-07-07T01:08:54.486Z,79.50
2018-07-07T01:11:22.469Z,78.90
2018-07-07T01:13:50.432Z,78.90
2018-07-07T01:16:18.276Z,79.80
2018-07-07T01:18:46.153Z,82.10
2018-07-07T01:21:14.061Z,84.40
2018-07-07T01:23:41.957Z,85.70
2018-07-07T01:26:10.601Z,85.90
2018-07-07T01:28:38.472Z,83.10
2018-07-07T01:31:07.124Z,82.50
2018-07-07T01:36:02.961Z,82.30
2018-07-07T01:38:30.992Z,82.40
2018-07-07T01:40:59.139Z,82.80
2018-07-07T01:43:27.057Z,82.70
2018-07-07T01:45:54.961Z,82.40
2018-07-07T01:48:22.908Z,81.80
2018-07-07T01:50:50.787Z,82.30
2018-07-07T01:53:18.717Z,83.50
2018-07-07T01:55:46.568Z,83.80
2018-07-07T01:58:14.359Z,83.70
2018-07-07T02:00:42.313Z,85.10
2018-07-07T02:03:10.463Z,83.10
2018-07-07T02:05:38.325Z,83.20
2018-07-07T02:10:34.085Z,83.20
2018-07-07T02:13:02.030Z,83.50
2018-07-07T02:15:29.961Z,83.00
2018-07-07T02:17:57.823Z,82.60
2018-07-07T02:22:53.401Z,83.10
2018-07-07T02:25:21.197Z,82.80
2018-07-07T02:27:49.101Z,84.40
2018-07-07T02:30:17.022Z,86.20
2018-07-07T02:32:45.016Z,87.00
2018-07-07T02:35:12.813Z,88.20
2018-07-07T02:37:40.721Z,89.40
2018-07-07T02:40:08.603Z,89.50
2018-07-07T02:42:36.502Z,89.20
2018-07-07T02:45:04.372Z,89.30
2018-07-07T02:47:32.284Z,89.90
2018-07-07T02:50:00.132Z,90.40
2018-07-07T02:52:28.021Z,90.60
2018-07-07T02:54:55.980Z,90.80
2018-07-07T02:59:51.579Z,90.60
2018-07-07T03:02:19.477Z,90.30
2018-07-07T03:04:47.317Z,90.20
2018-07-07T03:07:15.252Z,89.30
2018-07-07T03:09:43.201Z,88.20
2018-07-07T03:12:11.030Z,88.60
2018-07-07T03:14:38.953Z,89.20
2018-07-07T03:17:06.863Z,88.60
2018-07-07T03:19:34.734Z,89.70
2018-07-07T03:22:02.544Z,90.10
2018-07-07T03:24:30.387Z,90.50
2018-07-07T03:26:58.195Z,90.90
2018-07-07T03:29:26.061Z,90.90
2018-07-07T03:31:53.935Z,91.10
2018-07-07T03:34:21.863Z,91.00
2018-07-07T03:36:49.743Z,91.20
2018-07-07T03:39:17.552Z,91.10
2018-07-07T03:41:45.450Z,91.20
2018-07-07T03:44:13.309Z,91.00
2018-07-07T03:46:41.192Z,90.80
2018-07-07T03:49:08.996Z,90.40
2018-07-07T03:51:36.859Z,90.40
2018-07-07T03:54:04.884Z,90.50
2018-07-07T03:56:32.807Z,90.20
2018-07-07T03:59:00.669Z,90.30
2018-07-07T04:01:28.452Z,90.20
2018-07-07T04:03:56.358Z,90.20
2018-07-07T04:06:24.152Z,90.40
2018-07-07T04:08:51.990Z,90.60
2018-07-07T04:11:19.849Z,90.80
2018-07-07T04:13:47.652Z,90.70
2018-07-07T04:16:15.536Z,90.90
2018-07-07T04:18:43.408Z,90.80
2018-07-07T04:21:11.261Z,90.70
2018-07-07T04:23:39.114Z,90.60
2018-07-07T04:26:06.996Z,90.80
2018-07-07T04:28:34.901Z,91.10
2018-07-07T04:31:02.837Z,91.10
2018-07-07T04:33:30.772Z,91.20
2018-07-07T04:35:58.635Z,91.20
2018-07-07T04:38:26.448Z,91.20
2018-07-07T04:43:22.037Z,91.70
2018-07-07T04:45:49.907Z,91.60
2018-07-07T04:48:17.809Z,91.90
2018-07-07T04:50:45.666Z,92.00
2018-07-07T04:53:13.536Z,91.90
2018-07-07T04:55:41.373Z,91.80
2018-07-07T04:58:09.319Z,92.00
2018-07-07T05:00:37.228Z,91.90
2018-07-07T05:03:05.181Z,91.90
2018-07-07T05:05:33.065Z,91.60
2018-07-07T05:08:00.997Z,91.50
2018-07-07T05:10:28.878Z,91.40
2018-07-07T05:12:56.775Z,91.30
2018-07-07T05:15:24.745Z,91.30
2018-07-07T05:17:52.633Z,91.20
2018-07-07T05:20:20.542Z,91.10
2018-07-07T05:22:48.416Z,91.70
2018-07-07T05:25:16.250Z,91.90
2018-07-07T05:27:44.251Z,91.80
2018-07-07T05:30:12.082Z,91.90
2018-07-07T05:32:39.942Z,91.60
2018-07-07T05:35:07.879Z,91.40
2018-07-07T05:37:35.815Z,91.00
2018-07-07T05:40:03.748Z,90.70
2018-07-07T05:42:31.572Z,90.50
2018-07-07T05:44:59.485Z,90.30
2018-07-07T05:47:27.349Z,90.40
2018-07-07T05:49:55.301Z,90.00
2018-07-07T05:52:23.076Z,88.00
2018-07-07T05:54:50.952Z,86.60
2018-07-07T05:57:18.787Z,85.10
2018-07-07T05:59:46.652Z,83.90
2018-07-07T06:02:14.475Z,84.20
2018-07-07T06:04:42.375Z,83.70
2018-07-07T06:09:37.955Z,83.40
2018-07-07T06:12:05.893Z,83.50
2018-07-07T06:14:33.804Z,82.30
2018-07-07T06:17:01.676Z,80.60
2018-07-07T06:19:29.509Z,79.20
2018-07-07T06:21:57.391Z,77.50
2018-07-07T06:24:25.224Z,75.70
2018-07-07T06:26:53.088Z,75.60
2018-07-07T06:29:20.977Z,77.30
2018-07-07T06:31:48.845Z,78.50
2018-07-07T06:34:16.780Z,78.10
2018-07-07T06:36:44.601Z,77.70
2018-07-07T06:39:12.572Z,77.50
2018-07-07T06:41:40.411Z,77.90
2018-07-07T06:46:36.067Z,74.50
2018-07-07T06:49:03.872Z,71.00
2018-07-07T06:51:31.799Z,68.70
2018-07-07T06:53:59.714Z,67.30
2018-07-07T06:56:27.566Z,65.60
2018-07-07T06:58:55.470Z,62.90
2018-07-07T07:01:23.384Z,61.80
2018-07-07T07:03:51.324Z,63.10
2018-07-07T07:06:19.116Z,65.50
2018-07-07T07:08:47.036Z,67.20
2018-07-07T07:11:14.861Z,68.10
2018-07-07T07:13:42.760Z,69.70
2018-07-07T07:16:10.760Z,70.20
2018-07-07T07:18:38.660Z,69.90
2018-07-07T07:21:06.589Z,69.60
2018-07-07T07:23:34.517Z,70.30
2018-07-07T07:26:02.474Z,70.60
2018-07-07T07:28:30.308Z,70.40
2018-07-07T07:30:58.164Z,71.40
2018-07-07T07:33:26.101Z,72.10
2018-07-07T07:35:53.989Z,72.90
2018-07-07T07:38:21.909Z,72.00
2018-07-07T07:40:49.760Z,71.40
2018-07-07T07:43:17.672Z,71.10
2018-07-07T07:45:45.471Z,69.40
2018-07-07T07:48:13.253Z,69.70
2018-07-07T07:50:41.076Z,69.20
2018-07-07T07:53:08.863Z,69.30
2018-07-07T07:55:36.777Z,69.00
2018-07-07T07:58:04.556Z,65.70
2018-07-07T08:03:00.061Z,61.60
2018-07-07T08:05:27.960Z,59.20
2018-07-07T08:10:23.636Z,57.70
2018-07-07T08:12:51.468Z,55.60
2018-07-07T08:15:19.343Z,54.10
2018-07-07T08:17:47.156Z,54.20
2018-07-07T08:20:15.020Z,55.30
2018-07-07T08:22:42.926Z,56.30
2018-07-07T08:25:10.741Z,56.10
2018-07-07T08:27:38.621Z,54.40
2018-07-07T08:30:06.564Z,52.20
2018-07-07T08:52:05.621Z,48.80
2018-07-07T08:54:33.368Z,47.20
2018-07-07T08:57:01.185Z,41.00
2018-07-07T08:59:28.932Z,39.50
2018-07-07T09:01:56.815Z,39.40
2018-07-07T09:04:24.589Z,38.40
2018-07-07T09:06:52.383Z,36.70
2018-07-07T09:09:20.240Z,35.70
2018-07-07T09:11:48.140Z,35.90
2018-07-07T09:14:15.990Z,35.70
2018-07-07T09:16:43.812Z,35.70
2018-07-07T09:19:11.688Z,35.50
2018-07-07T09:21:39.518Z,35.00
2018-07-07T09:24:07.319Z,33.80
2018-07-07T09:26:35.112Z,33.60
2018-07-07T09:29:02.964Z,32.70
2018-07-07T09:31:30.843Z,32.20
2018-07-07T09:33:58.700Z,32.50
2018-07-07T09:36:26.668Z,33.70
2018-07-07T09:38:54.611Z,33.30
2018-07-07T09:41:22.521Z,33.10
2018-07-07T09:43:50.431Z,32.70
2018-07-07T09:46:18.351Z,32.40
2018-07-07T09:48:46.202Z,32.40
2018-07-07T09:51:14.085Z,33.70
2018-07-07T09:53:42.040Z,34.60
2018-07-07T09:56:09.990Z,34.90
2018-07-07T09:58:37.896Z,34.70
2018-07-07T10:01:05.733Z,35.00
2018-07-07T10:03:33.608Z,34.80
2018-07-07T10:06:01.511Z,35.20
2018-07-07T10:08:29.380Z,35.30
2018-07-07T10:10:57.236Z,36.00
2018-07-07T10:13:25.086Z,36.50
2018-07-07T10:15:52.948Z,36.70
2018-07-07T10:18:20.832Z,36.70
2018-07-07T10:20:48.661Z,37.00
2018-07-07T10:23:16.509Z,38.80
2018-07-07T10:25:44.367Z,38.70
2018-07-07T10:28:12.293Z,39.30
2018-07-07T10:30:40.096Z,40.10
2018-07-07T10:33:07.942Z,40.50
2018-07-07T10:35:35.765Z,40.40
2018-07-07T10:38:03.787Z,39.20
2018-07-07T10:40:31.608Z,38.20
2018-07-07T10:42:59.472Z,38.10
2018-07-07T10:45:27.329Z,38.40
2018-07-07T10:47:55.104Z,37.80
2018-07-07T10:50:22.924Z,36.90
2018-07-07T10:52:50.859Z,37.10
2018-07-07T10:55:18.703Z,36.80
2018-07-07T10:57:46.589Z,36.60
2018-07-07T11:00:14.540Z,36.40
2018-07-07T11:02:42.404Z,36.50
2018-07-07T11:05:10.268Z,36.60
2018-07-07T11:07:38.116Z,33.80
2018-07-07T11:10:06.048Z,34.80
2018-07-07T11:12:33.879Z,35.40
2018-07-07T11:15:01.837Z,35.60
2018-07-07T11:17:29.732Z,35.50
2018-07-07T11:19:57.599Z,35.30
2018-07-07T11:22:25.384Z,34.30
2018-07-07T11:24:53.272Z,33.60
2018-07-07T11:29:48.952Z,33.50
2018-07-07T11:32:16.840Z,34.30
2018-07-07T11:34:44.695Z,33.40
2018-07-07T11:37:12.532Z,33.20
2018-07-07T11:39:40.463Z,33.40
2018-07-07T11:42:09.255Z,33.10
2018-07-07T11:44:37.099Z,32.60
2018-07-07T11:47:04.908Z,32.50
2018-07-07T11:49:32.757Z,33.40
2018-07-07T11:52:00.580Z,33.80
2018-07-07T11:54:28.419Z,34.70
2018-07-07T11:56:56.204Z,34.90
2018-07-07T11:59:23.989Z,34.90
2018-07-07T12:01:51.836Z,34.30
2018-07-07T12:04:19.654Z,34.60
2018-07-07T12:06:47.563Z,34.90
2018-07-07T12:09:15.432Z,34.60
2018-07-07T12:11:43.488Z,34.90
2018-07-07T12:14:11.244Z,34.30
2018-07-07T12:16:39.108Z,34.80
2018-07-07T12:19:06.916Z,33.80
2018-07-07T12:21:34.720Z,35.00
2018-07-07T12:24:02.524Z,35.00
2018-07-07T12:26:30.385Z,34.60
2018-07-07T12:28:58.192Z,34.50
2018-07-07T12:31:26.086Z,33.60
2018-07-07T12:33:53.919Z,34.00
2018-07-07T12:36:21.692Z,33.90
2018-07-07T12:38:49.480Z,34.20
2018-07-07T12:41:17.276Z,34.20
2018-07-07T12:43:45.166Z,33.60
2018-07-07T12:46:13.045Z,33.70
2018-07-07T12:48:40.920Z,33.60
2018-07-07T12:51:08.773Z,33.70
2018-07-07T12:53:36.639Z,34.10
2018-07-07T12:56:04.609Z,34.00
2018-07-07T12:58:32.552Z,33.70
2018-07-07T13:01:00.383Z,33.80
2018-07-07T13:03:28.208Z,34.40
2018-07-07T13:05:56.046Z,33.30
2018-07-07T13:08:23.859Z,34.90
2018-07-07T13:10:51.819Z,35.20
2018-07-07T13:13:19.680Z,35.20
2018-07-07T13:15:47.580Z,35.90
2018-07-07T13:18:15.464Z,35.40
2018-07-07T13:20:43.403Z,35.20
2018-07-07T13:25:38.983Z,34.00
2018-07-07T13:28:06.913Z,34.70
2018-07-07T13:30:34.759Z,35.50
2018-07-07T13:33:02.620Z,34.90
2018-07-07T13:35:30.442Z,33.90
2018-07-07T13:37:58.280Z,34.10
2018-07-07T13:40:26.137Z,34.50
2018-07-07T13:42:53.932Z,34.70
2018-07-07T13:45:21.872Z,34.80
2018-07-07T13:47:49.685Z,34.50
2018-07-07T13:50:17.592Z,34.00
2018-07-07T13:52:45.497Z,35.00
2018-07-07T13:55:13.272Z,34.00
2018-07-07T13:57:41.244Z,34.30
2018-07-07T14:00:09.144Z,33.70
2018-07-07T14:02:37.053Z,34.60
2018-07-07T14:05:05.936Z,34.60
2018-07-07T14:07:33.815Z,34.30
2018-07-07T14:10:01.709Z,34.80
2018-07-07T14:12:29.597Z,35.30
2018-07-07T14:14:57.425Z,35.70
2018-07-07T14:17:25.340Z,35.70
2018-07-07T14:19:53.140Z,35.80
2018-07-07T14:22:21.004Z,36.00
2018-07-07T14:24:48.816Z,36.30
2018-07-07T14:27:16.617Z,36.50
2018-07-07T14:29:44.443Z,36.80
2018-07-07T14:32:12.246Z,37.10
2018-07-07T14:34:40.256Z,36.90
2018-07-07T14:37:08.157Z,37.00
2018-07-07T14:39:46.419Z,37.00
2018-07-07T14:42:27.648Z,37.10
2018-07-07T14:44:55.481Z,37.50
2018-07-07T14:47:23.351Z,37.40
2018-07-07T14:49:51.139Z,37.70
2018-07-07T14:52:19.078Z,37.60
2018-07-07T14:54:46.894Z,37.70
2018-07-07T14:57:14.690Z,37.40
2018-07-07T14:59:42.544Z,37.40
2018-07-07T15:02:10.388Z,38.00
2018-07-07T15:07:06.008Z,37.50
2018-07-07T15:09:33.869Z,36.80
2018-07-07T15:12:02.549Z,36.70
2018-07-07T15:14:30.531Z,36.50
2018-07-07T15:16:58.395Z,36.80
2018-07-07T15:19:26.316Z,36.90
2018-07-07T15:21:54.163Z,37.00
2018-07-07T15:24:22.012Z,37.10
2018-07-07T15:26:49.872Z,36.90
2018-07-07T15:29:17.616Z,36.50
2018-07-07T15:31:45.403Z,35.80
2018-07-07T15:34:13.240Z,36.40
2018-07-07T15:36:41.051Z,36.00
2018-07-07T15:39:08.852Z,36.00
2018-07-07T15:41:36.702Z,35.60
2018-07-07T15:44:04.633Z,35.20
2018-07-07T15:46:32.533Z,35.00
2018-07-07T15:49:00.356Z,35.60
2018-07-07T15:51:28.200Z,36.00
2018-07-07T15:53:56.049Z,36.90
2018-07-07T15:56:23.898Z,36.90
2018-07-07T16:01:19.425Z,36.80
2018-07-07T16:03:47.220Z,36.30
2018-07-07T16:06:15.005Z,35.90
2018-07-07T16:08:42.871Z,35.90
2018-07-07T16:11:10.758Z,36.50
2018-07-07T16:13:38.719Z,36.50
2018-07-07T16:16:06.567Z,36.40
2018-07-07T16:18:34.400Z,36.50
2018-07-07T16:21:02.260Z,37.10
2018-07-07T16:23:30.152Z,37.70
2018-07-07T16:25:57.971Z,37.20
2018-07-07T16:28:25.769Z,36.80
2018-07-07T16:30:53.580Z,36.70
2018-07-07T16:33:21.440Z,37.30
2018-07-07T16:35:49.272Z,37.70
2018-07-07T16:38:17.085Z,37.70
2018-07-07T16:40:44.872Z,38.00
2018-07-07T16:43:13.245Z,38.30
2018-07-07T16:45:41.103Z,38.60
2018-07-07T16:48:09.116Z,38.70
2018-07-07T16:50:37.045Z,38.50
2018-07-07T16:53:04.993Z,38.20
2018-07-07T16:55:32.944Z,38.30
2018-07-07T16:58:00.929Z,38.40
2018-07-07T17:00:28.945Z,39.10
2018-07-07T17:02:57.699Z,38.50
2018-07-07T17:05:25.720Z,38.50
2018-07-07T17:07:53.613Z,38.00
2018-07-07T17:10:21.556Z,37.80
2018-07-07T17:12:49.513Z,37.80
2018-07-07T17:15:17.609Z,37.90
2018-07-07T17:17:45.475Z,37.90
2018-07-07T17:20:13.319Z,38.30
2018-07-07T17:22:41.300Z,38.00
2018-07-07T17:25:09.764Z,38.00
2018-07-07T17:27:37.737Z,38.30
2018-07-07T17:32:33.379Z,38.70
2018-07-07T17:35:01.631Z,38.90
2018-07-07T17:37:29.541Z,39.40
2018-07-07T17:39:57.435Z,39.90
2018-07-07T17:42:25.345Z,40.10
2018-07-07T17:44:53.517Z,40.70
2018-07-07T17:47:21.548Z,40.10
2018-07-07T17:49:49.563Z,40.10
2018-07-07T17:52:17.491Z,40.50
2018-07-07T17:54:45.396Z,40.30
2018-07-07T17:57:13.387Z,40.70
2018-07-07T17:59:41.280Z,40.50
2018-07-07T18:02:09.240Z,40.40
2018-07-07T18:04:37.176Z,40.40
2018-07-07T18:07:05.111Z,40.20
2018-07-07T18:09:33.012Z,40.20
2018-07-07T18:12:00.804Z,40.30
2018-07-07T18:14:28.555Z,40.30
2018-07-07T18:16:56.354Z,40.20
2018-07-07T18:19:24.134Z,40.00
2018-07-07T18:21:52.012Z,40.40
2018-07-07T18:24:19.861Z,40.30
2018-07-07T18:26:47.685Z,40.70
2018-07-07T18:29:15.517Z,40.40
2018-07-07T18:31:43.327Z,40.10
2018-07-07T18:34:11.150Z,40.40
2018-07-07T18:36:39.000Z,40.70
2018-07-07T18:39:06.865Z,40.90
2018-07-07T18:41:34.767Z,41.10
2018-07-07T18:44:02.711Z,41.10
2018-07-07T18:46:30.504Z,41.40
2018-07-07T18:48:58.452Z,41.40
2018-07-07T18:51:26.244Z,41.40
2018-07-07T18:53:54.196Z,41.40
2018-07-07T18:56:22.029Z,41.30
2018-07-07T18:58:49.764Z,41.70
2018-07-07T19:01:17.612Z,41.70
2018-07-07T19:03:45.459Z,41.40
2018-07-07T19:06:13.256Z,41.70
2018-07-07T19:08:41.094Z,41.90
2018-07-07T19:11:08.925Z,41.70
2018-07-07T19:13:36.807Z,42.00
2018-07-07T19:16:04.764Z,42.00
2018-07-07T19:18:32.631Z,42.20
2018-07-07T19:21:06.220Z,42.30
2018-07-07T19:23:39.669Z,42.30
2018-07-07T19:26:13.160Z,42.50
2018-07-07T19:28:41.072Z,42.70
2018-07-07T19:31:08.935Z,42.80
2018-07-07T19:33:42.409Z,43.00
2018-07-07T19:37:19.260Z,43.20
2018-07-07T19:39:47.184Z,43.40
2018-07-07T19:42:15.265Z,43.30
2018-07-07T19:47:11.140Z,43.30
2018-07-07T19:49:39.752Z,43.20
2018-07-07T19:52:07.935Z,43.20
2018-07-07T19:54:35.771Z,42.90
2018-07-07T19:57:03.783Z,42.60
2018-07-07T19:59:31.880Z,42.30
2018-07-07T20:01:59.826Z,42.00
2018-07-07T20:04:27.734Z,41.80
2018-07-07T20:06:55.627Z,41.70
2018-07-07T20:09:23.393Z,41.70
2018-07-07T20:11:51.257Z,41.50
2018-07-07T20:14:21.540Z,41.40
2018-07-07T20:16:58.637Z,41.40
2018-07-07T20:19:27.541Z,41.30
2018-07-07T20:22:03.054Z,41.60
2018-07-07T20:24:38.353Z,41.50
2018-07-07T20:27:12.715Z,41.50
2018-07-07T20:29:40.668Z,41.50
2018-07-07T20:32:14.204Z,42.00
2018-07-07T20:34:42.089Z,41.90
2018-07-07T20:37:09.975Z,42.00
2018-07-07T20:39:37.871Z,42.30
2018-07-07T20:42:05.742Z,42.70
2018-07-07T20:44:33.695Z,42.80
2018-07-07T20:47:01.609Z,42.80
2018-07-07T20:49:29.457Z,43.70
2018-07-07T20:51:57.449Z,44.70
2018-07-07T20:54:25.284Z,45.20
2018-07-07T20:56:53.258Z,44.90
2018-07-07T20:59:21.089Z,44.50
2018-07-07T21:01:48.989Z,44.70
2018-07-07T21:04:16.876Z,44.70
2018-07-07T21:06:44.842Z,44.80
2018-07-07T21:09:12.712Z,45.10
2018-07-07T21:11:41.113Z,45.30
2018-07-07T21:14:09.089Z,45.40
2018-07-07T21:16:36.915Z,45.60
2018-07-07T21:19:05.352Z,46.20
2018-07-07T21:21:33.269Z,46.50
2018-07-07T21:24:01.186Z,46.40
2018-07-07T21:26:29.081Z,46.40
2018-07-07T21:28:56.888Z,46.50
2018-07-07T21:31:24.707Z,46.70
2018-07-07T21:33:52.608Z,46.90
2018-07-07T21:36:20.499Z,46.80
2018-07-07T21:38:48.497Z,46.80
2018-07-07T21:41:16.399Z,47.10
2018-07-07T21:43:44.306Z,47.20
2018-07-07T21:46:12.145Z,47.40
2018-07-07T21:48:39.973Z,47.30
2018-07-07T21:51:07.904Z,47.70
2018-07-07T21:53:35.826Z,47.70
2018-07-07T21:56:03.677Z,47.30
2018-07-07T21:58:31.644Z,47.50
2018-07-07T22:01:11.932Z,47.60
2018-07-07T22:03:45.913Z,47.60
2018-07-07T22:06:19.468Z,47.60
2018-07-07T22:08:47.425Z,47.60
2018-07-07T22:11:15.408Z,47.70
2018-07-07T22:13:43.312Z,47.70
2018-07-07T22:16:11.141Z,47.50
2018-07-07T22:18:38.948Z,47.20
2018-07-07T22:21:17.939Z,47.00
2018-07-07T22:23:45.788Z,46.90
